createdAt,value
2018-11-21T00:00:09.588Z,95.67
2018-11-21T00:02:37.855Z,95.99
2018-11-21T00:05:06.731Z,95.64
2018-11-21T00:07:35.774Z,95.93
2018-11-21T00:10:05.663Z,95.97
2018-11-21T00:12:33.977Z,96.01
2018-11-21T00:15:02.316Z,96.17
2018-11-21T00:17:30.581Z,95.78
2018-11-21T00:19:58.878Z,96.13
2018-11-21T00:22:27.256Z,96.33
2018-11-21T00:24:55.616Z,96.57
2018-11-21T00:27:23.887Z,96.44
2018-11-21T00:29:52.204Z,96.63
2018-11-21T00:32:25.129Z,96.25
2018-11-21T00:34:54.431Z,96.09
2018-11-21T00:37:23.504Z,96.31
2018-11-21T00:39:52.601Z,96.41
2018-11-21T00:42:20.870Z,96.50
2018-11-21T00:44:49.200Z,96.28
2018-11-21T00:47:18.024Z,95.98
2018-11-21T00:49:46.528Z,95.94
2018-11-21T00:52:14.808Z,95.87
2018-11-21T00:54:43.738Z,95.61
2018-11-21T00:57:11.460Z,95.42
2018-11-21T00:59:39.724Z,95.33
2018-11-21T01:02:08.027Z,95.87
2018-11-21T01:04:36.356Z,95.95
2018-11-21T01:07:04.649Z,95.94
2018-11-21T01:09:32.949Z,95.87
2018-11-21T01:12:01.252Z,95.65
2018-11-21T01:14:29.554Z,95.28
2018-11-21T01:16:57.880Z,95.32
2018-11-21T01:19:26.208Z,95.48
2018-11-21T01:21:54.626Z,95.80
2018-11-21T01:24:23.012Z,95.74
2018-11-21T01:26:51.628Z,95.89
2018-11-21T01:29:19.941Z,95.87
2018-11-21T01:31:48.310Z,95.73
2018-11-21T01:34:16.556Z,94.82
2018-11-21T01:36:44.870Z,95.25
2018-11-21T01:39:13.171Z,95.04
2018-11-21T01:41:41.517Z,95.16
2018-11-21T01:44:10.421Z,95.10
2018-11-21T01:46:38.704Z,94.97
2018-11-21T01:49:06.981Z,95.02
2018-11-21T01:51:35.271Z,94.96
2018-11-21T01:54:03.528Z,94.99
2018-11-21T01:56:32.227Z,95.03
2018-11-21T01:59:00.908Z,94.60
2018-11-21T02:01:29.259Z,94.79
2018-11-21T02:03:57.533Z,95.08
2018-11-21T02:06:25.856Z,95.12
2018-11-21T02:08:54.487Z,95.05
2018-11-21T02:11:22.807Z,94.85
2018-11-21T02:13:51.075Z,94.98
2018-11-21T02:16:19.363Z,95.13
2018-11-21T02:18:47.670Z,95.01
2018-11-21T02:21:15.956Z,94.86
2018-11-21T02:23:44.338Z,94.67
2018-11-21T02:26:12.628Z,94.95
2018-11-21T02:28:40.926Z,95.26
2018-11-21T02:31:09.226Z,95.49
2018-11-21T02:33:37.527Z,95.19
2018-11-21T02:36:06.385Z,95.03
2018-11-21T02:38:34.912Z,94.93
2018-11-21T02:41:03.194Z,95.01
2018-11-21T02:43:31.483Z,94.92
2018-11-21T02:45:59.848Z,94.75
2018-11-21T02:48:28.244Z,94.77
2018-11-21T02:50:56.673Z,94.91
2018-11-21T02:53:25.017Z,94.61
2018-11-21T02:55:53.326Z,94.90
2018-11-21T02:58:21.679Z,94.75
2018-11-21T03:00:49.933Z,95.05
2018-11-21T03:03:18.242Z,94.47
2018-11-21T03:05:46.632Z,94.38
2018-11-21T03:08:14.922Z,94.26
2018-11-21T03:10:43.169Z,94.05
2018-11-21T03:13:11.475Z,94.05
2018-11-21T03:15:39.730Z,94.36
2018-11-21T03:18:08.025Z,94.81
2018-11-21T03:20:36.559Z,94.56
2018-11-21T03:23:05.154Z,94.78
2018-11-21T03:25:33.432Z,94.63
2018-11-21T03:28:01.725Z,94.59
2018-11-21T03:30:30.003Z,94.50
2018-11-21T03:32:58.671Z,94.40
2018-11-21T03:35:27.019Z,94.43
2018-11-21T03:37:55.702Z,94.21
2018-11-21T03:40:24.320Z,94.57
2018-11-21T03:42:52.594Z,94.38
2018-11-21T03:45:23.544Z,93.68
2018-11-21T03:47:51.811Z,93.79
2018-11-21T03:50:20.096Z,94.29
2018-11-21T03:52:48.364Z,94.63
2018-11-21T03:55:16.650Z,94.69
2018-11-21T03:57:44.942Z,94.71
2018-11-21T04:00:14.031Z,94.83
2018-11-21T04:02:42.576Z,94.10
2018-11-21T04:05:11.103Z,93.89
2018-11-21T04:07:39.447Z,93.81
2018-11-21T04:10:12.657Z,93.81
2018-11-21T04:12:40.936Z,93.99
2018-11-21T04:15:10.952Z,93.87
2018-11-21T04:17:40.033Z,93.89
2018-11-21T04:20:08.751Z,93.65
2018-11-21T04:22:37.290Z,93.54
2018-11-21T04:25:06.615Z,93.82
2018-11-21T04:27:34.893Z,94.16
2018-11-21T04:30:03.178Z,94.04
2018-11-21T04:32:31.511Z,93.71
2018-11-21T04:34:59.965Z,93.46
2018-11-21T04:37:28.167Z,93.81
2018-11-21T04:39:56.479Z,93.63
2018-11-21T04:42:25.114Z,93.66
2018-11-21T04:44:53.405Z,94.02
2018-11-21T04:47:21.670Z,93.62
2018-11-21T04:49:50.273Z,93.80
2018-11-21T04:52:18.567Z,93.67
2018-11-21T04:54:46.920Z,93.88
2018-11-21T04:57:15.163Z,93.57
2018-11-21T04:59:43.503Z,93.64
2018-11-21T05:02:11.812Z,93.54
2018-11-21T05:04:40.098Z,93.38
2018-11-21T05:07:08.355Z,93.43
2018-11-21T05:09:36.648Z,93.02
2018-11-21T05:12:05.288Z,93.54
2018-11-21T05:14:34.029Z,93.61
2018-11-21T05:17:02.308Z,93.40
2018-11-21T05:19:30.633Z,93.47
2018-11-21T05:21:58.892Z,93.49
2018-11-21T05:24:27.202Z,93.69
2018-11-21T05:26:55.499Z,93.77
2018-11-21T05:29:23.814Z,94.04
2018-11-21T05:31:52.060Z,93.59
2018-11-21T05:34:20.349Z,93.65
2018-11-21T05:36:48.662Z,93.84
2018-11-21T05:39:17.270Z,93.83
2018-11-21T05:41:45.559Z,93.86
2018-11-21T05:44:13.820Z,93.81
2018-11-21T05:46:42.175Z,93.98
2018-11-21T05:49:10.433Z,94.13
2018-11-21T05:51:38.745Z,94.07
2018-11-21T05:54:07.005Z,93.96
2018-11-21T05:56:35.339Z,94.10
2018-11-21T05:59:03.670Z,94.29
2018-11-21T06:01:32.030Z,94.13
2018-11-21T06:04:00.277Z,93.50
2018-11-21T06:06:28.586Z,93.48
2018-11-21T06:08:56.889Z,93.57
2018-11-21T06:11:25.229Z,93.97
2018-11-21T06:13:53.488Z,93.46
2018-11-21T06:16:21.792Z,93.63
2018-11-21T06:18:50.084Z,93.42
2018-11-21T06:21:18.727Z,93.63
2018-11-21T06:23:46.995Z,93.64
2018-11-21T06:26:15.315Z,93.71
2018-11-21T06:28:43.554Z,93.72
2018-11-21T06:31:12.008Z,93.38
2018-11-21T06:33:40.310Z,93.61
2018-11-21T06:36:08.625Z,93.34
2018-11-21T06:38:36.885Z,93.53
2018-11-21T06:41:05.352Z,93.81
2018-11-21T06:43:33.637Z,93.94
2018-11-21T06:46:02.006Z,94.07
2018-11-21T06:48:30.245Z,94.00
2018-11-21T06:50:58.578Z,93.62
2018-11-21T06:53:26.951Z,93.44
2018-11-21T06:55:55.826Z,93.60
2018-11-21T06:58:24.080Z,93.16
2018-11-21T07:00:52.529Z,93.70
2018-11-21T07:03:20.849Z,93.55
2018-11-21T07:05:49.223Z,93.64
2018-11-21T07:08:17.590Z,93.59
2018-11-21T07:10:45.937Z,93.79
2018-11-21T07:13:15.469Z,93.63
2018-11-21T07:15:47.168Z,93.39
2018-11-21T07:18:15.732Z,93.40
2018-11-21T07:20:44.006Z,93.65
2018-11-21T07:23:12.413Z,93.81
2018-11-21T07:25:40.770Z,93.27
2018-11-21T07:28:12.910Z,93.36
2018-11-21T07:30:37.490Z,92.98
2018-11-21T07:33:05.912Z,93.15
2018-11-21T07:35:34.171Z,92.89
2018-11-21T07:38:04.093Z,92.83
2018-11-21T07:40:31.229Z,93.14
2018-11-21T07:42:59.576Z,93.19
2018-11-21T07:45:27.990Z,93.00
2018-11-21T07:47:56.511Z,93.16
2018-11-21T07:50:25.147Z,93.53
2018-11-21T07:52:53.704Z,93.29
2018-11-21T07:55:22.840Z,93.15
2018-11-21T07:57:55.965Z,92.93
2018-11-21T08:01:07.052Z,93.04
2018-11-21T08:03:37.508Z,92.77
2018-11-21T08:06:08.576Z,92.71
2018-11-21T08:08:44.268Z,92.74
2018-11-21T08:11:43.830Z,93.31
2018-11-21T08:14:43.373Z,92.90
2018-11-21T08:17:30.761Z,92.78
2018-11-21T08:20:18.533Z,92.63
2018-11-21T08:23:06.065Z,93.13
2018-11-21T08:25:52.033Z,92.99
2018-11-21T08:28:21.018Z,92.43
2018-11-21T08:30:50.405Z,92.49
2018-11-21T08:33:19.015Z,92.51
2018-11-21T08:35:47.570Z,92.43
2018-11-21T08:38:16.383Z,92.59
2018-11-21T08:40:44.865Z,93.23
2018-11-21T08:43:13.132Z,92.90
2018-11-21T08:45:41.502Z,93.05
2018-11-21T08:48:10.291Z,92.75
2018-11-21T08:50:38.582Z,93.07
2018-11-21T08:53:07.340Z,92.98
2018-11-21T08:55:35.969Z,92.91
2018-11-21T08:58:04.589Z,92.72
2018-11-21T09:00:33.218Z,92.50
2018-11-21T09:03:01.532Z,92.48
2018-11-21T09:05:30.080Z,92.11
2018-11-21T09:07:58.418Z,92.25
2018-11-21T09:12:54.271Z,92.52
2018-11-21T09:15:22.563Z,92.89
2018-11-21T09:17:50.887Z,92.72
2018-11-21T09:20:19.218Z,92.59
2018-11-21T09:22:48.003Z,91.38
2018-11-21T09:25:16.280Z,91.70
2018-11-21T09:27:44.714Z,91.56
2018-11-21T09:30:15.386Z,91.21
2018-11-21T09:32:44.128Z,91.67
2018-11-21T09:35:14.067Z,92.35
2018-11-21T09:37:42.388Z,92.41
2018-11-21T09:40:15.972Z,92.99
2018-11-21T09:42:45.731Z,92.76
2018-11-21T09:45:15.238Z,92.71
2018-11-21T09:47:43.653Z,92.26
2018-11-21T09:50:14.479Z,92.76
2018-11-21T09:52:42.917Z,91.90
2018-11-21T09:55:11.415Z,92.18
2018-11-21T09:57:39.857Z,92.23
2018-11-21T10:00:46.827Z,91.96
2018-11-21T10:03:17.026Z,92.29
2018-11-21T10:05:47.183Z,92.77
2018-11-21T10:08:34.176Z,92.22
2018-11-21T10:11:02.484Z,92.10
2018-11-21T10:13:30.789Z,92.52
2018-11-21T10:16:01.008Z,92.60
2018-11-21T10:18:27.404Z,92.46
2018-11-21T10:20:55.706Z,92.50
2018-11-21T10:23:24.364Z,92.47
2018-11-21T10:25:52.691Z,93.00
2018-11-21T10:28:21.043Z,93.25
2018-11-21T10:30:49.319Z,93.32
2018-11-21T10:33:17.669Z,93.06
2018-11-21T10:35:45.926Z,92.67
2018-11-21T10:38:14.223Z,92.90
2018-11-21T10:40:42.639Z,93.38
2018-11-21T10:43:10.936Z,92.57
2018-11-21T10:45:39.193Z,92.40
2018-11-21T10:48:07.561Z,92.39
2018-11-21T10:50:35.869Z,92.23
2018-11-21T10:53:04.564Z,92.59
2018-11-21T10:55:32.895Z,92.65
2018-11-21T10:58:01.668Z,92.94
2018-11-21T11:00:47.935Z,92.82
2018-11-21T11:03:21.380Z,92.87
2018-11-21T11:06:15.079Z,93.01
2018-11-21T11:09:14.796Z,92.50
2018-11-21T11:12:20.677Z,92.47
2018-11-21T11:15:23.559Z,92.45
2018-11-21T11:18:09.967Z,92.92
2018-11-21T11:21:03.487Z,93.38
2018-11-21T11:23:49.799Z,93.59
2018-11-21T11:26:55.435Z,93.36
2018-11-21T11:29:50.127Z,93.54
2018-11-21T11:32:29.427Z,92.41
2018-11-21T11:35:31.840Z,92.33
2018-11-21T11:38:19.187Z,92.65
2018-11-21T11:41:05.639Z,92.62
2018-11-21T11:43:51.763Z,92.62
2018-11-21T11:46:37.798Z,92.69
2018-11-21T11:49:31.163Z,92.77
2018-11-21T11:52:17.492Z,92.43
2018-11-21T11:55:07.637Z,92.55
2018-11-21T11:57:57.397Z,92.73
2018-11-21T12:00:57.502Z,92.94
2018-11-21T12:03:43.318Z,93.35
2018-11-21T12:06:19.483Z,92.65
2018-11-21T12:09:25.103Z,93.10
2018-11-21T12:12:11.301Z,93.04
2018-11-21T12:14:51.824Z,92.93
2018-11-21T12:17:37.843Z,93.06
2018-11-21T12:20:22.905Z,92.88
2018-11-21T12:23:13.542Z,91.54
2018-11-21T12:25:59.761Z,91.94
2018-11-21T12:28:45.555Z,92.51
2018-11-21T12:31:31.796Z,92.70
2018-11-21T12:34:19.220Z,92.93
2018-11-21T12:37:05.768Z,92.48
2018-11-21T12:39:51.698Z,93.10
2018-11-21T12:42:42.046Z,92.92
2018-11-21T12:45:32.381Z,93.19
2018-11-21T12:48:16.639Z,92.95
2018-11-21T12:51:05.304Z,92.90
2018-11-21T12:53:42.326Z,93.33
2018-11-21T12:56:35.503Z,93.24
2018-11-21T12:59:21.917Z,93.62
2018-11-21T13:02:12.036Z,93.73
2018-11-21T13:05:02.426Z,93.60
2018-11-21T13:07:53.101Z,93.49
2018-11-21T13:10:52.394Z,93.27
2018-11-21T13:13:38.570Z,93.65
2018-11-21T13:16:20.171Z,93.86
2018-11-21T13:19:07.665Z,93.84
2018-11-21T13:21:53.799Z,93.91
2018-11-21T13:24:39.887Z,93.87
2018-11-21T13:27:25.951Z,93.98
2018-11-21T13:30:05.292Z,94.00
2018-11-21T13:33:11.132Z,93.30
2018-11-21T13:36:04.626Z,93.87
2018-11-21T13:38:51.013Z,94.19
2018-11-21T13:41:36.903Z,93.15
2018-11-21T13:44:36.569Z,92.72
2018-11-21T13:47:25.103Z,93.15
2018-11-21T13:50:18.568Z,93.30
2018-11-21T13:53:08.977Z,93.37
2018-11-21T13:55:37.785Z,93.35
2018-11-21T13:58:06.156Z,93.36
2018-11-21T14:00:34.471Z,93.25
2018-11-21T14:03:02.947Z,93.63
2018-11-21T14:05:31.618Z,93.67
2018-11-21T14:08:00.362Z,93.59
2018-11-21T14:10:28.633Z,93.23
2018-11-21T14:12:57.000Z,93.75
2018-11-21T14:15:25.410Z,94.04
2018-11-21T14:17:53.679Z,93.88
2018-11-21T14:20:22.348Z,93.69
2018-11-21T14:22:50.653Z,93.86
2018-11-21T14:25:18.964Z,94.32
2018-11-21T14:27:47.371Z,94.36
2018-11-21T14:30:16.715Z,94.52
2018-11-21T14:32:45.332Z,94.93
2018-11-21T14:35:15.157Z,94.86
2018-11-21T14:37:44.129Z,94.80
2018-11-21T14:40:14.945Z,94.75
2018-11-21T14:42:43.473Z,94.63
2018-11-21T14:45:13.743Z,94.76
2018-11-21T14:47:42.688Z,94.72
2018-11-21T14:50:22.181Z,94.69
2018-11-21T14:52:50.469Z,93.85
2018-11-21T14:55:19.023Z,93.57
2018-11-21T14:57:47.342Z,94.05
2018-11-21T15:00:17.759Z,94.13
2018-11-21T15:02:46.065Z,94.31
2018-11-21T15:05:14.673Z,94.42
2018-11-21T15:07:43.795Z,94.29
2018-11-21T15:10:12.766Z,94.38
2018-11-21T15:12:41.065Z,94.18
2018-11-21T15:15:11.376Z,94.08
2018-11-21T15:17:39.730Z,94.11
2018-11-21T15:20:13.526Z,94.03
2018-11-21T15:22:41.867Z,94.37
2018-11-21T15:25:12.697Z,93.12
2018-11-21T15:27:41.157Z,93.47
2018-11-21T15:30:15.482Z,93.41
2018-11-21T15:32:44.029Z,93.68
2018-11-21T15:35:12.341Z,93.89
2018-11-21T15:37:41.734Z,93.90
2018-11-21T15:40:13.654Z,93.92
2018-11-21T15:42:42.584Z,93.93
2018-11-21T15:45:13.642Z,94.37
2018-11-21T15:47:42.106Z,94.36
2018-11-21T15:50:12.866Z,93.82
2018-11-21T15:52:41.428Z,93.86
2018-11-21T15:55:10.618Z,94.04
2018-11-21T15:57:39.277Z,94.35
2018-11-21T16:00:15.469Z,94.10
2018-11-21T16:02:44.555Z,94.63
2018-11-21T16:05:13.046Z,93.82
2018-11-21T16:07:41.428Z,93.39
2018-11-21T16:10:18.584Z,94.00
2018-11-21T16:12:40.592Z,94.25
2018-11-21T16:15:14.939Z,94.12
2018-11-21T16:17:43.227Z,93.96
2018-11-21T16:20:13.028Z,94.25
2018-11-21T16:22:41.308Z,94.44
2018-11-21T16:25:11.686Z,94.36
2018-11-21T16:27:40.601Z,94.27
2018-11-21T16:30:11.016Z,94.60
2018-11-21T16:32:39.358Z,94.97
2018-11-21T16:35:08.608Z,95.00
2018-11-21T16:37:36.755Z,95.24
2018-11-21T16:40:08.296Z,95.14
2018-11-21T16:42:36.597Z,95.38
2018-11-21T16:45:05.655Z,95.44
2018-11-21T16:47:34.065Z,95.31
2018-11-21T16:50:02.432Z,95.28
2018-11-21T16:52:30.758Z,95.59
2018-11-21T16:54:59.272Z,94.93
2018-11-21T16:57:28.307Z,94.64
2018-11-21T16:59:56.763Z,95.16
2018-11-21T17:02:25.131Z,95.50
2018-11-21T17:04:53.636Z,95.23
2018-11-21T17:07:22.095Z,95.40
2018-11-21T17:09:50.549Z,95.66
2018-11-21T17:12:18.812Z,95.44
2018-11-21T17:14:47.221Z,95.39
2018-11-21T17:17:15.551Z,95.58
2018-11-21T17:19:43.862Z,95.84
2018-11-21T17:22:12.535Z,95.62
2018-11-21T17:24:41.072Z,95.84
2018-11-21T17:27:09.399Z,96.32
2018-11-21T17:29:37.724Z,96.59
2018-11-21T17:32:06.414Z,96.63
2018-11-21T17:34:34.717Z,96.64
2018-11-21T17:37:03.359Z,96.81
2018-11-21T17:39:31.717Z,96.52
2018-11-21T17:42:00.008Z,96.79
2018-11-21T17:44:28.380Z,97.31
2018-11-21T17:46:56.692Z,97.46
2018-11-21T17:49:25.136Z,97.68
2018-11-21T17:51:53.520Z,97.57
2018-11-21T17:54:22.880Z,97.64
2018-11-21T17:56:51.412Z,97.27
2018-11-21T17:59:19.875Z,97.34
2018-11-21T18:01:48.197Z,97.31
2018-11-21T18:04:16.467Z,97.41
2018-11-21T18:06:45.122Z,97.24
2018-11-21T18:09:13.951Z,97.57
2018-11-21T18:11:42.669Z,97.92
2018-11-21T18:14:11.113Z,97.95
2018-11-21T18:17:04.840Z,98.26
2018-11-21T18:19:32.804Z,98.38
2018-11-21T18:22:01.133Z,98.46
2018-11-21T18:24:29.643Z,98.16
2018-11-21T18:26:58.033Z,98.23
2018-11-21T18:29:26.831Z,98.42
2018-11-21T18:31:55.232Z,97.77
2018-11-21T18:34:23.527Z,97.15
2018-11-21T18:36:52.038Z,97.38
2018-11-21T18:39:20.359Z,97.64
2018-11-21T18:41:48.840Z,97.38
2018-11-21T18:44:17.469Z,97.57
2018-11-21T18:46:45.789Z,97.33
2018-11-21T18:49:14.233Z,97.53
2018-11-21T18:51:42.656Z,97.42
2018-11-21T18:54:11.063Z,97.49
2018-11-21T18:57:08.924Z,97.25
2018-11-21T18:59:48.260Z,97.14
2018-11-21T19:02:16.659Z,96.93
2018-11-21T19:04:44.974Z,96.92
2018-11-21T19:07:13.676Z,97.28
2018-11-21T19:09:42.054Z,97.21
2018-11-21T19:12:10.432Z,96.81
2018-11-21T19:14:38.901Z,97.16
2018-11-21T19:17:10.062Z,97.18
2018-11-21T19:19:38.443Z,97.04
2018-11-21T19:22:06.912Z,96.93
2018-11-21T19:24:35.583Z,97.08
2018-11-21T19:27:04.230Z,97.32
2018-11-21T19:29:32.916Z,97.05
2018-11-21T19:32:01.642Z,97.58
2018-11-21T19:34:31.144Z,97.88
2018-11-21T19:37:00.202Z,98.11
2018-11-21T19:39:32.789Z,97.96
2018-11-21T19:42:22.105Z,98.20
2018-11-21T19:44:51.145Z,97.87
2018-11-21T19:47:20.686Z,97.58
2018-11-21T19:49:49.536Z,97.77
2018-11-21T19:52:17.863Z,97.77
2018-11-21T19:54:46.141Z,97.67
2018-11-21T19:57:14.480Z,97.86
2018-11-21T19:59:43.598Z,97.84
2018-11-21T20:02:12.032Z,97.54
2018-11-21T20:04:41.039Z,97.37
2018-11-21T20:07:09.406Z,97.44
2018-11-21T20:09:38.038Z,97.45
2018-11-21T20:12:06.299Z,97.89
2018-11-21T20:14:34.711Z,98.13
2018-11-21T20:17:03.606Z,98.10
2018-11-21T20:19:31.859Z,98.42
2018-11-21T20:22:00.194Z,98.39
2018-11-21T20:24:28.575Z,98.15
2018-11-21T20:26:57.079Z,98.15
2018-11-21T20:29:25.461Z,98.22
2018-11-21T20:31:54.781Z,98.42
2018-11-21T20:34:23.060Z,98.50
2018-11-21T20:36:51.430Z,98.48
2018-11-21T20:39:19.839Z,98.36
2018-11-21T20:41:48.113Z,98.16
2018-11-21T20:44:17.010Z,98.21
2018-11-21T20:46:45.580Z,98.16
2018-11-21T20:49:13.896Z,98.32
2018-11-21T20:51:42.506Z,98.49
2018-11-21T20:54:10.907Z,98.53
2018-11-21T20:56:39.546Z,98.51
2018-11-21T20:59:08.352Z,98.33
2018-11-21T21:01:36.778Z,98.49
2018-11-21T21:04:05.361Z,98.53
2018-11-21T21:06:33.686Z,98.47
2018-11-21T21:09:02.134Z,98.50
2018-11-21T21:11:31.366Z,98.45
2018-11-21T21:13:59.874Z,98.25
2018-11-21T21:16:28.404Z,98.34
2018-11-21T21:18:57.188Z,98.62
2018-11-21T21:21:26.177Z,98.44
2018-11-21T21:23:55.004Z,98.19
2018-11-21T21:26:23.331Z,98.37
2018-11-21T21:28:51.658Z,98.24
2018-11-21T21:31:19.957Z,97.94
2018-11-21T21:33:48.248Z,97.60
2018-11-21T21:36:16.557Z,97.80
2018-11-21T21:38:45.153Z,97.75
2018-11-21T21:41:13.437Z,97.94
2018-11-21T21:43:41.751Z,97.84
2018-11-21T21:46:10.018Z,97.95
2018-11-21T21:48:38.332Z,97.46
2018-11-21T21:51:07.154Z,97.48
2018-11-21T21:53:35.555Z,97.10
